sensor_id;sensor_type;location;lat;lon;timestamp;temperature;humidity
39277;DHT22;63149;48.086;-1.606;2023-01-24T06:01:32;1.90;99.90
39277;DHT22;63149;48.086;-1.606;2023-01-24T06:03:59;1.90;99.90
39277;DHT22;63149;48.086;-1.606;2023-01-24T06:06:26;1.90;99.90
39277;DHT22;63149;48.086;-1.606;2023-01-24T06:08:53;2.00;99.90
39277;DHT22;63149;48.086;-1.606;2023-01-24T06:11:22;2.00;99.90
39277;DHT22;63149;48.086;-1.606;2023-01-24T06:13:49;2.00;99.90
39277;DHT22;63149;48.086;-1.606;2023-01-24T06:16:17;2.00;99.90
39277;DHT22;63149;48.086;-1.606;2023-01-24T06:18:46;1.90;99.90
39277;DHT22;63149;48.086;-1.606;2023-01-24T06:21:23;1.90;99.90
39277;DHT22;63149;48.086;-1.606;2023-01-24T06:23:51;1.90;99.90
39277;DHT22;63149;48.086;-1.606;2023-01-24T06:26:19;1.90;99.90
39277;DHT22;63149;48.086;-1.606;2023-01-24T06:28:47;1.90;99.90
39277;DHT22;63149;48.086;-1.606;2023-01-24T06:31:26;1.90;99.90
39277;DHT22;63149;48.086;-1.606;2023-01-24T06:34:12;1.90;99.90
39277;DHT22;63149;48.086;-1.606;2023-01-24T06:36:50;1.90;99.90
39277;DHT22;63149;48.086;-1.606;2023-01-24T06:39:19;1.90;99.90
39277;DHT22;63149;48.086;-1.606;2023-01-24T06:41:47;1.90;99.90
39277;DHT22;63149;48.086;-1.606;2023-01-24T06:44:15;2.00;99.90
39277;DHT22;63149;48.086;-1.606;2023-01-24T06:46:42;1.90;99.90
39277;DHT22;63149;48.086;-1.606;2023-01-24T06:49:11;2.00;99.90
39277;DHT22;63149;48.086;-1.606;2023-01-24T06:51:38;2.00;99.90
39277;DHT22;63149;48.086;-1.606;2023-01-24T06:54:05;2.00;99.90
39277;DHT22;63149;48.086;-1.606;2023-01-24T06:56:32;2.00;99.90
39277;DHT22;63149;48.086;-1.606;2023-01-24T06:58:59;1.90;99.90
39277;DHT22;63149;48.086;-1.606;2023-01-24T07:01:26;2.00;99.90
39277;DHT22;63149;48.086;-1.606;2023-01-24T07:03:54;1.90;99.90
39277;DHT22;63149;48.086;-1.606;2023-01-24T07:06:22;2.00;99.90
39277;DHT22;63149;48.086;-1.606;2023-01-24T07:08:49;2.00;99.90
39277;DHT22;63149;48.086;-1.606;2023-01-24T07:11:16;2.00;99.90
39277;DHT22;63149;48.086;-1.606;2023-01-24T07:13:43;2.00;99.90
39277;DHT22;63149;48.086;-1.606;2023-01-24T07:16:10;1.90;99.90
39277;DHT22;63149;48.086;-1.606;2023-01-24T07:18:37;1.90;99.90
39277;DHT22;63149;48.086;-1.606;2023-01-24T07:21:05;1.90;99.90
39277;DHT22;63149;48.086;-1.606;2023-01-24T07:23:35;1.90;99.90
39277;DHT22;63149;48.086;-1.606;2023-01-24T07:26:04;2.00;99.90
39277;DHT22;63149;48.086;-1.606;2023-01-24T07:28:34;1.90;99.90
39277;DHT22;63149;48.086;-1.606;2023-01-24T07:31:01;2.00;99.90
39277;DHT22;63149;48.086;-1.606;2023-01-24T07:33:28;2.00;99.90
39277;DHT22;63149;48.086;-1.606;2023-01-24T07:35:55;2.00;99.90
39277;DHT22;63149;48.086;-1.606;2023-01-24T07:38:22;2.00;99.90
39277;DHT22;63149;48.086;-1.606;2023-01-24T07:40:51;1.90;99.90
39277;DHT22;63149;48.086;-1.606;2023-01-24T07:43:18;2.00;99.90
39277;DHT22;63149;48.086;-1.606;2023-01-24T07:45:46;1.90;99.90
39277;DHT22;63149;48.086;-1.606;2023-01-24T07:48:13;1.90;99.90
39277;DHT22;63149;48.086;-1.606;2023-01-24T07:50:40;1.90;99.90
39277;DHT22;63149;48.086;-1.606;2023-01-24T07:53:06;2.00;99.90
39277;DHT22;63149;48.086;-1.606;2023-01-24T07:55:33;1.90;99.90
39277;DHT22;63149;48.086;-1.606;2023-01-24T07:58:02;2.00;99.90
39277;DHT22;63149;48.086;-1.606;2023-01-24T08:00:30;2.00;99.90
39277;DHT22;63149;48.086;-1.606;2023-01-24T08:02:57;2.00;99.90
39277;DHT22;63149;48.086;-1.606;2023-01-24T08:05:24;2.00;99.90
39277;DHT22;63149;48.086;-1.606;2023-01-24T08:07:53;2.00;99.90
39277;DHT22;63149;48.086;-1.606;2023-01-24T08:10:20;2.00;99.90
39277;DHT22;63149;48.086;-1.606;2023-01-24T08:12:48;2.00;99.90
39277;DHT22;63149;48.086;-1.606;2023-01-24T08:15:17;2.00;99.90
39277;DHT22;63149;48.086;-1.606;2023-01-24T08:17:44;2.00;99.90
39277;DHT22;63149;48.086;-1.606;2023-01-24T08:20:11;2.00;99.90
39277;DHT22;63149;48.086;-1.606;2023-01-24T08:22:38;2.00;99.90
39277;DHT22;63149;48.086;-1.606;2023-01-24T08:25:05;2.00;99.90
39277;DHT22;63149;48.086;-1.606;2023-01-24T08:27:33;2.00;99.90
39277;DHT22;63149;48.086;-1.606;2023-01-24T08:30:00;2.00;99.90
39277;DHT22;63149;48.086;-1.606;2023-01-24T08:32:28;2.00;99.90
39277;DHT22;63149;48.086;-1.606;2023-01-24T08:34:57;2.00;99.90
39277;DHT22;63149;48.086;-1.606;2023-01-24T08:37:24;2.00;99.90
39277;DHT22;63149;48.086;-1.606;2023-01-24T08:39:51;2.00;99.90
39277;DHT22;63149;48.086;-1.606;2023-01-24T08:42:18;2.00;99.90
39277;DHT22;63149;48.086;-1.606;2023-01-24T08:44:45;2.00;99.90
39277;DHT22;63149;48.086;-1.606;2023-01-24T08:47:11;2.00;99.90
39277;DHT22;63149;48.086;-1.606;2023-01-24T08:49:40;2.00;99.90
39277;DHT22;63149;48.086;-1.606;2023-01-24T08:52:07;2.00;99.90
39277;DHT22;63149;48.086;-1.606;2023-01-24T08:54:34;2.00;99.90
39277;DHT22;63149;48.086;-1.606;2023-01-24T08:57:02;2.00;99.90
39277;DHT22;63149;48.086;-1.606;2023-01-24T08:59:29;2.10;99.90
39277;DHT22;63149;48.086;-1.606;2023-01-24T09:01:56;2.10;99.90
39277;DHT22;63149;48.086;-1.606;2023-01-24T09:04:23;2.10;99.90
39277;DHT22;63149;48.086;-1.606;2023-01-24T09:06:53;2.10;99.90
39277;DHT22;63149;48.086;-1.606;2023-01-24T09:09:20;2.10;99.90
39277;DHT22;63149;48.086;-1.606;2023-01-24T09:11:47;2.10;99.90
39277;DHT22;63149;48.086;-1.606;2023-01-24T09:14:14;2.10;99.90
39277;DHT22;63149;48.086;-1.606;2023-01-24T09:16:41;2.10;99.90
39277;DHT22;63149;48.086;-1.606;2023-01-24T09:19:09;2.10;99.90
39277;DHT22;63149;48.086;-1.606;2023-01-24T09:21:37;2.10;99.90
39277;DHT22;63149;48.086;-1.606;2023-01-24T09:24:06;2.20;99.90
39277;DHT22;63149;48.086;-1.606;2023-01-24T09:26:33;2.20;99.90
39277;DHT22;63149;48.086;-1.606;2023-01-24T09:29:00;2.20;99.90
39277;DHT22;63149;48.086;-1.606;2023-01-24T09:31:27;2.20;99.90
39277;DHT22;63149;48.086;-1.606;2023-01-24T09:33:53;2.20;99.90
39277;DHT22;63149;48.086;-1.606;2023-01-24T09:36:20;2.20;99.90
39277;DHT22;63149;48.086;-1.606;2023-01-24T09:38:47;2.30;99.90
39277;DHT22;63149;48.086;-1.606;2023-01-24T09:41:24;2.30;99.90
39277;DHT22;63149;48.086;-1.606;2023-01-24T09:43:58;2.30;99.90
39277;DHT22;63149;48.086;-1.606;2023-01-24T09:46:30;2.30;99.90
39277;DHT22;63149;48.086;-1.606;2023-01-24T09:49:05;2.30;99.90
39277;DHT22;63149;48.086;-1.606;2023-01-24T09:51:42;2.20;99.90
39277;DHT22;63149;48.086;-1.606;2023-01-24T09:54:16;2.30;99.90
39277;DHT22;63149;48.086;-1.606;2023-01-24T09:56:47;2.30;99.90
39277;DHT22;63149;48.086;-1.606;2023-01-24T09:59:20;2.30;99.90
39277;DHT22;63149;48.086;-1.606;2023-01-24T10:01:47;2.30;99.90
39277;DHT22;63149;48.086;-1.606;2023-01-24T10:04:17;2.30;99.90
39277;DHT22;63149;48.086;-1.606;2023-01-24T10:06:59;2.30;99.90
39277;DHT22;63149;48.086;-1.606;2023-01-24T10:09:35;2.30;99.90
39277;DHT22;63149;48.086;-1.606;2023-01-24T10:12:16;2.30;99.90
39277;DHT22;63149;48.086;-1.606;2023-01-24T10:14:50;2.30;99.90
39277;DHT22;63149;48.086;-1.606;2023-01-24T10:17:24;2.30;99.90
39277;DHT22;63149;48.086;-1.606;2023-01-24T10:20:14;2.30;99.90
39277;DHT22;63149;48.086;-1.606;2023-01-24T10:22:55;2.30;99.90
39277;DHT22;63149;48.086;-1.606;2023-01-24T10:25:25;2.30;99.90
39277;DHT22;63149;48.086;-1.606;2023-01-24T10:27:56;2.30;99.90
39277;DHT22;63149;48.086;-1.606;2023-01-24T10:30:26;2.40;99.90
39277;DHT22;63149;48.086;-1.606;2023-01-24T10:32:59;2.40;99.90
39277;DHT22;63149;48.086;-1.606;2023-01-24T10:35:32;2.50;99.90
39277;DHT22;63149;48.086;-1.606;2023-01-24T10:38:05;2.50;99.90
39277;DHT22;63149;48.086;-1.606;2023-01-24T10:40:33;2.50;99.90
39277;DHT22;63149;48.086;-1.606;2023-01-24T10:43:16;2.50;99.90
39277;DHT22;63149;48.086;-1.606;2023-01-24T10:45:48;2.40;99.90
39277;DHT22;63149;48.086;-1.606;2023-01-24T10:48:29;2.40;99.90
39277;DHT22;63149;48.086;-1.606;2023-01-24T10:51:10;2.40;99.90
39277;DHT22;63149;48.086;-1.606;2023-01-24T10:53:37;2.40;99.90
39277;DHT22;63149;48.086;-1.606;2023-01-24T10:56:05;2.50;99.90
39277;DHT22;63149;48.086;-1.606;2023-01-24T10:58:35;2.50;99.90
39277;DHT22;63149;48.086;-1.606;2023-01-24T11:01:06;2.50;99.90
39277;DHT22;63149;48.086;-1.606;2023-01-24T11:03:38;2.50;99.90
39277;DHT22;63149;48.086;-1.606;2023-01-24T11:06:24;2.50;99.90
39277;DHT22;63149;48.086;-1.606;2023-01-24T11:08:55;2.50;99.90
39277;DHT22;63149;48.086;-1.606;2023-01-24T11:11:30;2.60;99.90
39277;DHT22;63149;48.086;-1.606;2023-01-24T11:13:59;2.50;99.90
39277;DHT22;63149;48.086;-1.606;2023-01-24T11:16:32;2.60;99.90
39277;DHT22;63149;48.086;-1.606;2023-01-24T11:19:00;2.60;99.90
39277;DHT22;63149;48.086;-1.606;2023-01-24T11:21:31;2.60;99.90
39277;DHT22;63149;48.086;-1.606;2023-01-24T11:24:00;2.60;99.90
39277;DHT22;63149;48.086;-1.606;2023-01-24T11:26:29;2.60;99.90
39277;DHT22;63149;48.086;-1.606;2023-01-24T11:29:00;2.60;99.90
39277;DHT22;63149;48.086;-1.606;2023-01-24T11:31:33;2.50;99.90
39277;DHT22;63149;48.086;-1.606;2023-01-24T11:34:38;2.60;99.90
39277;DHT22;63149;48.086;-1.606;2023-01-24T11:40:18;2.60;99.90
39277;DHT22;63149;48.086;-1.606;2023-01-24T11:42:58;2.60;99.90
39277;DHT22;63149;48.086;-1.606;2023-01-24T11:45:43;2.70;99.90
39277;DHT22;63149;48.086;-1.606;2023-01-24T11:48:19;2.70;99.90
39277;DHT22;63149;48.086;-1.606;2023-01-24T11:50:58;2.70;99.90
39277;DHT22;63149;48.086;-1.606;2023-01-24T11:53:45;2.60;99.90
39277;DHT22;63149;48.086;-1.606;2023-01-24T11:56:24;2.60;99.90
39277;DHT22;63149;48.086;-1.606;2023-01-24T11:59:23;2.70;99.90
39277;DHT22;63149;48.086;-1.606;2023-01-24T12:02:09;2.70;99.90
39277;DHT22;63149;48.086;-1.606;2023-01-24T12:05:05;2.70;99.90
39277;DHT22;63149;48.086;-1.606;2023-01-24T12:07:49;2.70;99.90
39277;DHT22;63149;48.086;-1.606;2023-01-24T12:10:24;2.70;99.90
39277;DHT22;63149;48.086;-1.606;2023-01-24T12:13:02;2.70;99.90
39277;DHT22;63149;48.086;-1.606;2023-01-24T12:15:38;2.70;99.90
39277;DHT22;63149;48.086;-1.606;2023-01-24T12:18:17;2.80;99.90
39277;DHT22;63149;48.086;-1.606;2023-01-24T12:20:59;2.80;99.90
39277;DHT22;63149;48.086;-1.606;2023-01-24T12:23:41;2.90;99.90
39277;DHT22;63149;48.086;-1.606;2023-01-24T12:26:16;2.90;99.90
39277;DHT22;63149;48.086;-1.606;2023-01-24T12:28:49;2.80;99.90
39277;DHT22;63149;48.086;-1.606;2023-01-24T12:31:40;2.80;99.90
39277;DHT22;63149;48.086;-1.606;2023-01-24T12:34:26;2.90;99.90
39277;DHT22;63149;48.086;-1.606;2023-01-24T12:36:57;3.00;99.90
39277;DHT22;63149;48.086;-1.606;2023-01-24T12:39:32;3.00;99.90
39277;DHT22;63149;48.086;-1.606;2023-01-24T12:42:05;3.00;99.90
39277;DHT22;63149;48.086;-1.606;2023-01-24T12:44:38;3.00;99.90
39277;DHT22;63149;48.086;-1.606;2023-01-24T12:47:20;3.00;99.90
39277;DHT22;63149;48.086;-1.606;2023-01-24T12:50:01;3.00;99.90
39277;DHT22;63149;48.086;-1.606;2023-01-24T12:52:35;3.00;99.90
39277;DHT22;63149;48.086;-1.606;2023-01-24T12:55:09;3.00;99.90
39277;DHT22;63149;48.086;-1.606;2023-01-24T12:57:41;3.00;99.90
39277;DHT22;63149;48.086;-1.606;2023-01-24T13:00:17;2.90;99.90
39277;DHT22;63149;48.086;-1.606;2023-01-24T13:05:49;3.00;99.90
39277;DHT22;63149;48.086;-1.606;2023-01-24T13:08:28;3.00;99.90
39277;DHT22;63149;48.086;-1.606;2023-01-24T13:11:17;3.00;99.90
39277;DHT22;63149;48.086;-1.606;2023-01-24T13:13:56;2.90;99.90
39277;DHT22;63149;48.086;-1.606;2023-01-24T13:16:40;3.00;99.90
39277;DHT22;63149;48.086;-1.606;2023-01-24T13:19:17;3.00;99.90
39277;DHT22;63149;48.086;-1.606;2023-01-24T13:21:51;3.00;99.90
39277;DHT22;63149;48.086;-1.606;2023-01-24T13:24:38;3.00;99.90
39277;DHT22;63149;48.086;-1.606;2023-01-24T13:27:28;3.00;99.90
39277;DHT22;63149;48.086;-1.606;2023-01-24T13:30:11;3.10;99.90
39277;DHT22;63149;48.086;-1.606;2023-01-24T13:32:42;3.10;99.90
39277;DHT22;63149;48.086;-1.606;2023-01-24T13:35:16;3.10;99.90
39277;DHT22;63149;48.086;-1.606;2023-01-24T13:37:51;3.10;99.90
39277;DHT22;63149;48.086;-1.606;2023-01-24T13:40:23;3.00;99.90
39277;DHT22;63149;48.086;-1.606;2023-01-24T13:42:52;3.10;99.90
39277;DHT22;63149;48.086;-1.606;2023-01-24T13:45:47;3.10;99.90
39277;DHT22;63149;48.086;-1.606;2023-01-24T13:51:47;3.20;99.90
39277;DHT22;63149;48.086;-1.606;2023-01-24T13:54:37;3.10;99.90
39277;DHT22;63149;48.086;-1.606;2023-01-24T13:57:26;3.20;99.90
39277;DHT22;63149;48.086;-1.606;2023-01-24T14:00:24;3.20;99.90
39277;DHT22;63149;48.086;-1.606;2023-01-24T14:03:04;3.20;99.90
39277;DHT22;63149;48.086;-1.606;2023-01-24T14:05:46;3.20;99.90
39277;DHT22;63149;48.086;-1.606;2023-01-24T14:08:35;3.20;99.90
39277;DHT22;63149;48.086;-1.606;2023-01-24T14:11:50;3.20;99.90
39277;DHT22;63149;48.086;-1.606;2023-01-24T14:14:31;3.20;99.90
39277;DHT22;63149;48.086;-1.606;2023-01-24T14:17:04;3.20;99.90
39277;DHT22;63149;48.086;-1.606;2023-01-24T14:19:35;3.20;99.90
39277;DHT22;63149;48.086;-1.606;2023-01-24T14:22:04;3.20;99.90
39277;DHT22;63149;48.086;-1.606;2023-01-24T14:24:35;3.20;99.90
39277;DHT22;63149;48.086;-1.606;2023-01-24T14:27:17;3.20;99.90
39277;DHT22;63149;48.086;-1.606;2023-01-24T14:29:47;3.20;99.90
39277;DHT22;63149;48.086;-1.606;2023-01-24T14:32:21;3.20;99.90
39277;DHT22;63149;48.086;-1.606;2023-01-24T14:34:56;3.10;99.90
39277;DHT22;63149;48.086;-1.606;2023-01-24T14:37:26;3.10;99.90
39277;DHT22;63149;48.086;-1.606;2023-01-24T14:40:09;3.10;99.90
39277;DHT22;63149;48.086;-1.606;2023-01-24T14:42:37;3.10;99.90
39277;DHT22;63149;48.086;-1.606;2023-01-24T14:45:12;3.10;99.90
39277;DHT22;63149;48.086;-1.606;2023-01-24T14:47:41;3.10;99.90
39277;DHT22;63149;48.086;-1.606;2023-01-24T14:50:25;3.10;99.90
39277;DHT22;63149;48.086;-1.606;2023-01-24T14:52:53;3.10;99.90
39277;DHT22;63149;48.086;-1.606;2023-01-24T14:55:33;3.10;99.90
39277;DHT22;63149;48.086;-1.606;2023-01-24T14:58:19;3.10;99.90
39277;DHT22;63149;48.086;-1.606;2023-01-24T15:00:47;3.10;99.90
39277;DHT22;63149;48.086;-1.606;2023-01-24T15:03:17;3.10;99.90
39277;DHT22;63149;48.086;-1.606;2023-01-24T15:06:00;3.10;99.90
39277;DHT22;63149;48.086;-1.606;2023-01-24T15:08:27;3.10;99.90
39277;DHT22;63149;48.086;-1.606;2023-01-24T15:11:00;3.10;99.90
39277;DHT22;63149;48.086;-1.606;2023-01-24T15:13:35;3.10;99.90
39277;DHT22;63149;48.086;-1.606;2023-01-24T15:16:03;3.10;99.90
39277;DHT22;63149;48.086;-1.606;2023-01-24T15:18:46;3.00;99.90
39277;DHT22;63149;48.086;-1.606;2023-01-24T15:21:37;3.00;99.90
39277;DHT22;63149;48.086;-1.606;2023-01-24T15:24:05;3.00;99.90
39277;DHT22;63149;48.086;-1.606;2023-01-24T15:26:38;3.00;99.90
39277;DHT22;63149;48.086;-1.606;2023-01-24T15:32:30;3.00;99.90
39277;DHT22;63149;48.086;-1.606;2023-01-24T15:35:26;3.00;99.90
39277;DHT22;63149;48.086;-1.606;2023-01-24T15:38:21;2.90;99.90
39277;DHT22;63149;48.086;-1.606;2023-01-24T15:43:38;3.00;99.90
39277;DHT22;63149;48.086;-1.606;2023-01-24T15:46:19;2.90;99.90
39277;DHT22;63149;48.086;-1.606;2023-01-24T15:49:27;3.00;99.90
39277;DHT22;63149;48.086;-1.606;2023-01-24T15:52:03;3.00;99.90
39277;DHT22;63149;48.086;-1.606;2023-01-24T15:54:30;3.00;99.90
39277;DHT22;63149;48.086;-1.606;2023-01-24T15:56:58;3.00;99.90
39277;DHT22;63149;48.086;-1.606;2023-01-24T15:59:27;3.00;99.90
39277;DHT22;63149;48.086;-1.606;2023-01-24T16:01:54;3.00;99.90
39277;DHT22;63149;48.086;-1.606;2023-01-24T16:04:23;3.00;99.90
39277;DHT22;63149;48.086;-1.606;2023-01-24T16:06:50;3.00;99.90
39277;DHT22;63149;48.086;-1.606;2023-01-24T16:09:17;3.00;99.90
39277;DHT22;63149;48.086;-1.606;2023-01-24T16:11:45;2.90;99.90
39277;DHT22;63149;48.086;-1.606;2023-01-24T16:14:16;2.90;99.90
39277;DHT22;63149;48.086;-1.606;2023-01-24T16:16:45;2.90;99.90
39277;DHT22;63149;48.086;-1.606;2023-01-24T16:19:15;3.00;99.90
39277;DHT22;63149;48.086;-1.606;2023-01-24T16:21:44;3.00;99.90
39277;DHT22;63149;48.086;-1.606;2023-01-24T16:24:12;3.10;99.90
39277;DHT22;63149;48.086;-1.606;2023-01-24T16:26:43;3.00;99.90
39277;DHT22;63149;48.086;-1.606;2023-01-24T16:29:16;3.00;99.90
39277;DHT22;63149;48.086;-1.606;2023-01-24T16:31:44;3.00;99.90
39277;DHT22;63149;48.086;-1.606;2023-01-24T16:34:11;2.90;99.90
39277;DHT22;63149;48.086;-1.606;2023-01-24T16:36:38;2.90;99.90
39277;DHT22;63149;48.086;-1.606;2023-01-24T16:39:07;3.00;99.90
39277;DHT22;63149;48.086;-1.606;2023-01-24T16:41:36;2.90;99.90
39277;DHT22;63149;48.086;-1.606;2023-01-24T16:44:03;2.90;99.90
39277;DHT22;63149;48.086;-1.606;2023-01-24T16:46:30;2.80;99.90
39277;DHT22;63149;48.086;-1.606;2023-01-24T16:48:57;2.80;99.90
39277;DHT22;63149;48.086;-1.606;2023-01-24T16:51:25;2.80;99.90
39277;DHT22;63149;48.086;-1.606;2023-01-24T16:53:53;2.80;99.90
39277;DHT22;63149;48.086;-1.606;2023-01-24T16:56:22;2.70;99.90
39277;DHT22;63149;48.086;-1.606;2023-01-24T16:58:53;2.70;99.90
39277;DHT22;63149;48.086;-1.606;2023-01-24T17:01:21;2.70;99.90
39277;DHT22;63149;48.086;-1.606;2023-01-24T17:03:49;2.70;99.90
39277;DHT22;63149;48.086;-1.606;2023-01-24T17:06:17;2.70;99.90
39277;DHT22;63149;48.086;-1.606;2023-01-24T17:08:44;2.70;99.90
39277;DHT22;63149;48.086;-1.606;2023-01-24T17:11:11;2.70;99.90
39277;DHT22;63149;48.086;-1.606;2023-01-24T17:13:40;2.70;99.90
39277;DHT22;63149;48.086;-1.606;2023-01-24T17:16:09;2.70;99.90
39277;DHT22;63149;48.086;-1.606;2023-01-24T17:18:37;2.70;99.90
39277;DHT22;63149;48.086;-1.606;2023-01-24T17:21:07;2.70;99.90
39277;DHT22;63149;48.086;-1.606;2023-01-24T17:23:35;2.70;99.90
39277;DHT22;63149;48.086;-1.606;2023-01-24T17:26:05;2.70;99.90
39277;DHT22;63149;48.086;-1.606;2023-01-24T17:28:32;2.70;99.90
39277;DHT22;63149;48.086;-1.606;2023-01-24T17:31:06;2.70;99.90
39277;DHT22;63149;48.086;-1.606;2023-01-24T17:33:33;2.70;99.90
39277;DHT22;63149;48.086;-1.606;2023-01-24T17:36:00;2.70;99.90
39277;DHT22;63149;48.086;-1.606;2023-01-24T17:38:27;2.70;99.90
39277;DHT22;63149;48.086;-1.606;2023-01-24T17:40:54;2.70;99.90
39277;DHT22;63149;48.086;-1.606;2023-01-24T17:43:21;2.70;99.90
39277;DHT22;63149;48.086;-1.606;2023-01-24T17:45:51;2.70;99.90
39277;DHT22;63149;48.086;-1.606;2023-01-24T17:48:20;2.70;99.90
39277;DHT22;63149;48.086;-1.606;2023-01-24T17:50:47;2.70;99.90
39277;DHT22;63149;48.086;-1.606;2023-01-24T17:53:14;2.70;99.90
39277;DHT22;63149;48.086;-1.606;2023-01-24T17:55:41;2.70;99.90
39277;DHT22;63149;48.086;-1.606;2023-01-24T17:58:09;2.70;99.90
39277;DHT22;63149;48.086;-1.606;2023-01-24T18:00:36;2.70;99.90
39277;DHT22;63149;48.086;-1.606;2023-01-24T18:03:03;2.70;99.90
39277;DHT22;63149;48.086;-1.606;2023-01-24T18:05:32;2.70;99.90
39277;DHT22;63149;48.086;-1.606;2023-01-24T18:07:59;2.70;99.90
39277;DHT22;63149;48.086;-1.606;2023-01-24T18:10:28;2.70;99.90
39277;DHT22;63149;48.086;-1.606;2023-01-24T18:12:55;2.60;99.90
39277;DHT22;63149;48.086;-1.606;2023-01-24T18:15:22;2.60;99.90
39277;DHT22;63149;48.086;-1.606;2023-01-24T18:17:49;2.70;99.90
39277;DHT22;63149;48.086;-1.606;2023-01-24T18:20:16;2.60;99.90
39277;DHT22;63149;48.086;-1.606;2023-01-24T18:22:44;2.60;99.90
39277;DHT22;63149;48.086;-1.606;2023-01-24T18:25:12;2.60;99.90
39277;DHT22;63149;48.086;-1.606;2023-01-24T18:27:39;2.50;99.90
39277;DHT22;63149;48.086;-1.606;2023-01-24T18:30:07;2.60;99.90
39277;DHT22;63149;48.086;-1.606;2023-01-24T18:32:34;2.50;99.90
39277;DHT22;63149;48.086;-1.606;2023-01-24T18:35:01;2.50;99.90
39277;DHT22;63149;48.086;-1.606;2023-01-24T18:37:28;2.50;99.90
39277;DHT22;63149;48.086;-1.606;2023-01-24T18:39:56;2.50;99.90
39277;DHT22;63149;48.086;-1.606;2023-01-24T18:42:23;2.50;99.90
39277;DHT22;63149;48.086;-1.606;2023-01-24T18:44:50;2.50;99.90
39277;DHT22;63149;48.086;-1.606;2023-01-24T18:47:17;2.50;99.90
39277;DHT22;63149;48.086;-1.606;2023-01-24T18:49:44;2.50;99.90
39277;DHT22;63149;48.086;-1.606;2023-01-24T18:52:11;2.50;99.90
39277;DHT22;63149;48.086;-1.606;2023-01-24T18:54:38;2.40;99.90
39277;DHT22;63149;48.086;-1.606;2023-01-24T18:57:07;2.50;99.90
39277;DHT22;63149;48.086;-1.606;2023-01-24T18:59:35;2.40;99.90
39277;DHT22;63149;48.086;-1.606;2023-01-24T19:02:02;2.40;99.90
39277;DHT22;63149;48.086;-1.606;2023-01-24T19:04:30;2.40;99.90
39277;DHT22;63149;48.086;-1.606;2023-01-24T19:06:57;2.50;99.90
39277;DHT22;63149;48.086;-1.606;2023-01-24T19:09:27;2.50;99.90
39277;DHT22;63149;48.086;-1.606;2023-01-24T19:11:54;2.50;99.90
39277;DHT22;63149;48.086;-1.606;2023-01-24T19:14:23;2.50;99.90
39277;DHT22;63149;48.086;-1.606;2023-01-24T19:16:51;2.50;99.90
39277;DHT22;63149;48.086;-1.606;2023-01-24T19:19:18;2.50;99.90
39277;DHT22;63149;48.086;-1.606;2023-01-24T19:21:49;2.60;99.90
39277;DHT22;63149;48.086;-1.606;2023-01-24T19:24:16;2.60;99.90
39277;DHT22;63149;48.086;-1.606;2023-01-24T19:26:43;2.60;99.90
39277;DHT22;63149;48.086;-1.606;2023-01-24T19:29:10;2.60;99.90
39277;DHT22;63149;48.086;-1.606;2023-01-24T19:31:39;2.70;99.90
39277;DHT22;63149;48.086;-1.606;2023-01-24T19:34:06;2.70;99.90
39277;DHT22;63149;48.086;-1.606;2023-01-24T19:36:33;2.70;99.90
39277;DHT22;63149;48.086;-1.606;2023-01-24T19:39:00;2.70;99.90
39277;DHT22;63149;48.086;-1.606;2023-01-24T19:41:27;2.70;99.90
39277;DHT22;63149;48.086;-1.606;2023-01-24T19:43:55;2.60;99.90
39277;DHT22;63149;48.086;-1.606;2023-01-24T19:46:22;2.60;99.90
39277;DHT22;63149;48.086;-1.606;2023-01-24T19:48:51;2.60;99.90
39277;DHT22;63149;48.086;-1.606;2023-01-24T19:51:18;2.60;99.90
39277;DHT22;63149;48.086;-1.606;2023-01-24T19:53:48;2.60;99.90
39277;DHT22;63149;48.086;-1.606;2023-01-24T19:56:16;2.60;99.90
39277;DHT22;63149;48.086;-1.606;2023-01-24T19:58:43;2.60;99.90
39277;DHT22;63149;48.086;-1.606;2023-01-24T20:01:13;2.60;99.90
39277;DHT22;63149;48.086;-1.606;2023-01-24T20:03:40;2.60;99.90
39277;DHT22;63149;48.086;-1.606;2023-01-24T20:06:12;2.60;99.90
39277;DHT22;63149;48.086;-1.606;2023-01-24T20:08:43;2.60;99.90
39277;DHT22;63149;48.086;-1.606;2023-01-24T20:11:11;2.60;99.90
39277;DHT22;63149;48.086;-1.606;2023-01-24T20:13:38;2.60;99.90
39277;DHT22;63149;48.086;-1.606;2023-01-24T20:16:07;2.60;99.90
39277;DHT22;63149;48.086;-1.606;2023-01-24T20:18:34;2.70;99.90
39277;DHT22;63149;48.086;-1.606;2023-01-24T20:21:01;2.60;99.90
39277;DHT22;63149;48.086;-1.606;2023-01-24T20:23:29;2.60;99.90
39277;DHT22;63149;48.086;-1.606;2023-01-24T20:26:01;2.70;99.90
39277;DHT22;63149;48.086;-1.606;2023-01-24T20:28:28;2.60;99.90
39277;DHT22;63149;48.086;-1.606;2023-01-24T20:30:58;2.60;99.90
39277;DHT22;63149;48.086;-1.606;2023-01-24T20:33:25;2.70;99.90
39277;DHT22;63149;48.086;-1.606;2023-01-24T20:35:57;2.70;99.90
39277;DHT22;63149;48.086;-1.606;2023-01-24T20:38:24;2.70;99.90
39277;DHT22;63149;48.086;-1.606;2023-01-24T20:40:56;2.70;99.90
39277;DHT22;63149;48.086;-1.606;2023-01-24T20:43:23;2.70;99.90
39277;DHT22;63149;48.086;-1.606;2023-01-24T20:45:50;2.60;99.90
39277;DHT22;63149;48.086;-1.606;2023-01-24T20:48:17;2.60;99.90
39277;DHT22;63149;48.086;-1.606;2023-01-24T20:50:44;2.70;99.90
39277;DHT22;63149;48.086;-1.606;2023-01-24T20:53:19;2.70;99.90
39277;DHT22;63149;48.086;-1.606;2023-01-24T20:55:52;2.70;99.90
39277;DHT22;63149;48.086;-1.606;2023-01-24T20:58:20;2.70;99.90
39277;DHT22;63149;48.086;-1.606;2023-01-24T21:00:47;2.70;99.90
39277;DHT22;63149;48.086;-1.606;2023-01-24T21:03:14;2.60;99.90
39277;DHT22;63149;48.086;-1.606;2023-01-24T21:05:41;2.60;99.90
39277;DHT22;63149;48.086;-1.606;2023-01-24T21:08:08;2.60;99.90
39277;DHT22;63149;48.086;-1.606;2023-01-24T21:10:35;2.60;99.90
39277;DHT22;63149;48.086;-1.606;2023-01-24T21:13:02;2.50;99.90
39277;DHT22;63149;48.086;-1.606;2023-01-24T21:15:30;2.60;99.90
39277;DHT22;63149;48.086;-1.606;2023-01-24T21:17:57;2.50;99.90
39277;DHT22;63149;48.086;-1.606;2023-01-24T21:20:24;2.50;99.90
39277;DHT22;63149;48.086;-1.606;2023-01-24T21:22:51;2.50;99.90
39277;DHT22;63149;48.086;-1.606;2023-01-24T21:25:18;2.50;99.90
39277;DHT22;63149;48.086;-1.606;2023-01-24T21:27:48;2.50;99.90
39277;DHT22;63149;48.086;-1.606;2023-01-24T21:30:16;2.50;99.90
39277;DHT22;63149;48.086;-1.606;2023-01-24T21:32:44;2.50;99.90
39277;DHT22;63149;48.086;-1.606;2023-01-24T21:35:11;2.60;99.90
39277;DHT22;63149;48.086;-1.606;2023-01-24T21:37:38;2.50;99.90
39277;DHT22;63149;48.086;-1.606;2023-01-24T21:40:06;2.60;99.90
39277;DHT22;63149;48.086;-1.606;2023-01-24T21:42:34;2.60;99.90
39277;DHT22;63149;48.086;-1.606;2023-01-24T21:45:01;2.60;99.90
39277;DHT22;63149;48.086;-1.606;2023-01-24T21:47:28;2.60;99.90
39277;DHT22;63149;48.086;-1.606;2023-01-24T21:49:56;2.60;99.90
39277;DHT22;63149;48.086;-1.606;2023-01-24T21:52:23;2.50;99.90
39277;DHT22;63149;48.086;-1.606;2023-01-24T21:54:50;2.60;99.90
39277;DHT22;63149;48.086;-1.606;2023-01-24T21:57:17;2.60;99.90
39277;DHT22;63149;48.086;-1.606;2023-01-24T22:00:04;2.60;99.90
39277;DHT22;63149;48.086;-1.606;2023-01-24T22:02:31;2.50;99.90
39277;DHT22;63149;48.086;-1.606;2023-01-24T22:05:00;2.50;99.90
39277;DHT22;63149;48.086;-1.606;2023-01-24T22:07:29;2.50;99.90
39277;DHT22;63149;48.086;-1.606;2023-01-24T22:09:57;2.50;99.90
39277;DHT22;63149;48.086;-1.606;2023-01-24T22:12:25;2.50;99.90